createdAt,value
2019-03-23T00:01:27.079Z,6.37
2019-03-23T00:03:54.884Z,6.03
2019-03-23T00:06:30.442Z,7.43
2019-03-23T00:08:52.550Z,6.97
2019-03-23T00:11:20.474Z,7.13
2019-03-23T00:13:48.565Z,7.70
2019-03-23T00:16:16.312Z,6.13
2019-03-23T00:18:44.066Z,7.67
2019-03-23T00:21:11.828Z,6.63
2019-03-23T00:23:39.591Z,6.57
2019-03-23T00:26:07.347Z,6.80
2019-03-23T00:28:35.207Z,6.97
2019-03-23T00:31:03.366Z,7.30
2019-03-23T00:33:31.181Z,7.20
2019-03-23T00:35:59.140Z,6.90
2019-03-23T00:38:26.930Z,8.70
2019-03-23T00:40:54.699Z,7.00
2019-03-23T00:43:22.684Z,6.70
2019-03-23T00:45:50.490Z,7.10
2019-03-23T00:48:18.264Z,7.23
2019-03-23T00:50:46.218Z,6.17
2019-03-23T00:53:14.190Z,6.00
2019-03-23T00:55:41.904Z,6.90
2019-03-23T00:58:09.631Z,6.80
2019-03-23T01:00:37.348Z,7.77
2019-03-23T01:03:05.391Z,7.27
2019-03-23T01:05:33.235Z,7.73
2019-03-23T01:08:01.450Z,8.90
2019-03-23T01:10:29.301Z,8.83
2019-03-23T01:12:57.030Z,9.63
2019-03-23T01:15:24.778Z,9.47
2019-03-23T01:17:52.601Z,9.80
2019-03-23T01:20:20.353Z,9.13
2019-03-23T01:22:48.129Z,9.77
2019-03-23T01:25:16.380Z,9.77
2019-03-23T01:27:44.203Z,10.03
2019-03-23T01:30:12.773Z,9.77
2019-03-23T01:32:40.789Z,10.53
2019-03-23T01:35:09.091Z,10.53
2019-03-23T01:37:37.009Z,11.80
2019-03-23T01:40:05.806Z,11.70
2019-03-23T01:42:33.989Z,11.70
2019-03-23T01:45:02.948Z,12.40
2019-03-23T01:47:31.171Z,14.70
2019-03-23T01:50:00.082Z,19.23
2019-03-23T01:52:29.396Z,22.50
2019-03-23T01:54:58.421Z,27.30
2019-03-23T01:57:27.462Z,29.90
2019-03-23T01:59:56.791Z,31.87
2019-03-23T02:02:25.886Z,36.37
2019-03-23T02:04:54.727Z,39.90
2019-03-23T02:07:23.434Z,37.97
2019-03-23T02:09:52.243Z,42.77
2019-03-23T02:12:21.016Z,41.93
2019-03-23T02:14:50.433Z,44.87
2019-03-23T02:17:19.409Z,43.27
2019-03-23T02:19:49.054Z,44.90
2019-03-23T02:22:16.814Z,46.30
2019-03-23T02:24:45.809Z,45.77
2019-03-23T02:27:14.614Z,46.27
2019-03-23T02:29:43.573Z,46.90
2019-03-23T02:32:11.936Z,46.53
2019-03-23T02:34:41.125Z,43.47
2019-03-23T02:37:09.842Z,46.37
2019-03-23T02:39:39.262Z,44.90
2019-03-23T02:42:08.388Z,44.30
2019-03-23T02:44:37.452Z,45.70
2019-03-23T02:47:06.363Z,43.00
2019-03-23T02:49:35.740Z,45.23
2019-03-23T02:52:04.755Z,43.80
2019-03-23T02:54:33.759Z,46.50
2019-03-23T02:57:02.597Z,45.17
2019-03-23T02:59:32.115Z,45.93
2019-03-23T03:02:00.956Z,46.67
2019-03-23T03:04:30.352Z,46.87
2019-03-23T03:06:59.682Z,50.27
2019-03-23T03:09:29.302Z,50.73
2019-03-23T03:11:58.187Z,50.80
2019-03-23T03:14:27.283Z,51.07
2019-03-23T03:16:56.678Z,50.00
2019-03-23T03:19:25.625Z,52.47
2019-03-23T03:21:54.452Z,54.90
2019-03-23T03:24:23.500Z,53.77
2019-03-23T03:26:52.489Z,55.60
2019-03-23T03:29:21.537Z,55.03
2019-03-23T03:31:50.683Z,54.90
2019-03-23T03:34:20.247Z,55.23
2019-03-23T03:36:48.374Z,52.00
2019-03-23T03:39:17.366Z,60.00
2019-03-23T03:41:46.247Z,53.00
2019-03-23T03:44:15.653Z,58.90
2019-03-23T03:46:43.837Z,56.55
2019-03-23T03:49:13.232Z,58.70
2019-03-23T03:51:42.687Z,55.33
2019-03-23T03:54:11.740Z,55.80
2019-03-23T03:56:39.869Z,61.28
2019-03-23T03:59:09.414Z,55.90
2019-03-23T04:01:37.648Z,58.50
2019-03-23T04:04:06.716Z,56.42
2019-03-23T04:06:35.880Z,59.45
2019-03-23T04:09:06.407Z,61.77
2019-03-23T04:11:35.425Z,58.50
2019-03-23T04:14:04.221Z,62.03
2019-03-23T04:16:33.310Z,63.85
2019-03-23T04:19:02.299Z,69.17
2019-03-23T04:21:31.484Z,66.42
2019-03-23T04:24:00.528Z,61.80
2019-03-23T04:26:29.654Z,67.60
2019-03-23T04:28:57.565Z,67.22
2019-03-23T04:31:26.346Z,66.07
2019-03-23T04:33:55.076Z,69.95
2019-03-23T04:36:25.987Z,68.87
2019-03-23T04:38:54.075Z,75.67
2019-03-23T04:41:22.044Z,73.20
2019-03-23T04:43:50.734Z,76.87
2019-03-23T04:46:19.777Z,73.85
2019-03-23T04:48:48.535Z,69.30
2019-03-23T04:51:17.889Z,66.22
2019-03-23T04:53:47.374Z,70.83
2019-03-23T04:56:15.502Z,68.28
2019-03-23T04:58:44.522Z,66.42
2019-03-23T05:01:13.737Z,64.00
2019-03-23T05:03:43.088Z,68.72
2019-03-23T05:06:11.825Z,62.13
2019-03-23T05:08:40.949Z,61.75
2019-03-23T05:11:10.225Z,66.02
2019-03-23T05:13:38.673Z,62.15
2019-03-23T05:16:07.802Z,64.45
2019-03-23T05:18:36.085Z,64.42
2019-03-23T05:21:05.117Z,63.97
2019-03-23T05:23:34.516Z,64.85
2019-03-23T05:26:03.862Z,65.65
2019-03-23T05:28:32.281Z,68.37
2019-03-23T05:31:01.788Z,66.85
2019-03-23T05:33:31.191Z,66.72
2019-03-23T05:35:59.530Z,68.87
2019-03-23T05:38:28.391Z,68.90
2019-03-23T05:40:57.988Z,66.22
2019-03-23T05:43:27.603Z,66.02
2019-03-23T05:45:56.224Z,73.90
2019-03-23T05:48:25.174Z,75.17
2019-03-23T05:50:54.710Z,67.90
2019-03-23T05:53:23.322Z,68.25
2019-03-23T05:55:51.819Z,65.90
2019-03-23T05:58:20.619Z,62.87
2019-03-23T06:00:50.338Z,61.08
2019-03-23T06:03:18.665Z,55.73
2019-03-23T06:05:48.077Z,59.73
2019-03-23T06:08:16.373Z,59.53
2019-03-23T06:10:45.294Z,58.63
2019-03-23T06:13:14.193Z,61.63
2019-03-23T06:15:43.000Z,59.50
2019-03-23T06:18:10.743Z,59.48
2019-03-23T06:20:39.477Z,52.43
2019-03-23T06:23:08.653Z,56.02
2019-03-23T06:25:37.554Z,54.20
2019-03-23T06:28:07.348Z,53.87
2019-03-23T06:30:35.986Z,56.10
2019-03-23T06:33:04.054Z,53.00
2019-03-23T06:35:32.833Z,51.30
2019-03-23T06:38:01.671Z,50.35
2019-03-23T06:40:31.949Z,51.43
2019-03-23T06:43:00.172Z,51.23
2019-03-23T06:45:28.970Z,50.40
2019-03-23T06:47:57.691Z,52.97
2019-03-23T06:50:26.517Z,52.20
2019-03-23T06:52:55.522Z,52.03
2019-03-23T06:55:24.301Z,49.38
2019-03-23T06:57:53.755Z,49.57
2019-03-23T07:00:22.890Z,54.42
2019-03-23T07:02:51.051Z,54.60
2019-03-23T07:05:19.947Z,49.03
2019-03-23T07:07:48.686Z,51.30
2019-03-23T07:10:17.518Z,53.27
2019-03-23T07:12:45.278Z,52.62
2019-03-23T07:15:19.908Z,50.43
2019-03-23T07:17:45.038Z,49.93
2019-03-23T07:20:14.548Z,52.63
2019-03-23T07:22:43.872Z,48.87
2019-03-23T07:25:13.050Z,51.93
2019-03-23T07:27:41.773Z,50.00
2019-03-23T07:30:12.112Z,55.90
2019-03-23T07:32:40.890Z,52.50
2019-03-23T07:35:10.142Z,51.97
2019-03-23T07:37:38.872Z,52.73
2019-03-23T07:40:08.701Z,54.37
2019-03-23T07:42:37.436Z,54.30
2019-03-23T07:45:06.710Z,50.73
2019-03-23T07:47:35.550Z,51.37
2019-03-23T07:50:05.394Z,53.97
2019-03-23T07:52:34.202Z,52.60
2019-03-23T07:55:10.558Z,52.77
2019-03-23T07:57:39.578Z,53.60
2019-03-23T08:00:09.438Z,56.20
2019-03-23T08:02:38.221Z,54.97
2019-03-23T08:05:07.493Z,52.80
2019-03-23T08:07:36.213Z,53.87
2019-03-23T08:10:05.401Z,54.53
2019-03-23T08:12:34.422Z,53.60
2019-03-23T08:15:03.728Z,52.40
2019-03-23T08:17:32.565Z,54.33
2019-03-23T08:20:01.718Z,52.60
2019-03-23T08:22:31.176Z,53.27
2019-03-23T08:24:59.896Z,54.60
2019-03-23T08:27:28.931Z,51.77
2019-03-23T08:29:57.902Z,53.07
2019-03-23T08:32:26.517Z,48.57
2019-03-23T08:34:55.315Z,52.10
2019-03-23T08:37:24.154Z,53.20
2019-03-23T08:39:52.799Z,54.10
2019-03-23T08:42:21.535Z,53.80
2019-03-23T08:44:50.362Z,50.80
2019-03-23T08:47:19.301Z,52.90
2019-03-23T08:49:47.901Z,53.20
2019-03-23T08:52:16.638Z,51.50
2019-03-23T08:54:45.370Z,51.93
2019-03-23T08:57:14.106Z,52.23
2019-03-23T08:59:42.982Z,53.33
2019-03-23T09:02:11.835Z,53.73
2019-03-23T09:04:40.630Z,53.70
2019-03-23T09:07:09.707Z,50.53
2019-03-23T09:09:38.940Z,50.00
2019-03-23T09:12:08.154Z,49.30
2019-03-23T09:14:37.292Z,55.30
2019-03-23T09:17:06.448Z,53.33
2019-03-23T09:19:35.510Z,51.13
2019-03-23T09:22:04.470Z,55.07
2019-03-23T09:24:33.490Z,49.60
2019-03-23T09:27:02.211Z,51.63
2019-03-23T09:29:31.216Z,51.20
2019-03-23T09:32:00.257Z,49.53
2019-03-23T09:34:29.573Z,51.17
2019-03-23T09:36:57.345Z,49.73
2019-03-23T09:39:25.515Z,48.73
2019-03-23T09:41:54.395Z,49.90
2019-03-23T09:44:23.848Z,51.77
2019-03-23T09:46:53.093Z,50.77
2019-03-23T09:49:22.147Z,48.13
2019-03-23T09:51:51.298Z,48.00
2019-03-23T09:54:20.025Z,52.20
2019-03-23T09:56:49.340Z,52.60
2019-03-23T09:59:18.119Z,49.90
2019-03-23T10:01:47.602Z,51.40
2019-03-23T10:04:16.639Z,51.07
2019-03-23T10:06:45.674Z,50.47
2019-03-23T10:09:14.950Z,49.70
2019-03-23T10:11:43.877Z,49.73
2019-03-23T10:14:12.868Z,51.90
2019-03-23T10:16:41.830Z,52.57
2019-03-23T10:19:11.194Z,48.73
2019-03-23T10:21:40.454Z,50.10
2019-03-23T10:24:09.608Z,48.37
2019-03-23T10:26:39.061Z,47.47
2019-03-23T10:29:09.046Z,46.47
2019-03-23T10:31:38.139Z,50.10
2019-03-23T10:34:07.160Z,51.77
2019-03-23T10:36:36.437Z,50.97
2019-03-23T10:39:06.007Z,52.27
2019-03-23T10:41:34.727Z,52.77
2019-03-23T10:44:03.984Z,52.97
2019-03-23T10:46:32.874Z,57.20
2019-03-23T10:49:01.801Z,53.23
2019-03-23T10:51:31.017Z,46.13
2019-03-23T10:53:59.677Z,48.93
2019-03-23T10:56:29.343Z,44.97
2019-03-23T10:59:03.179Z,46.97
2019-03-23T11:01:31.701Z,45.17
2019-03-23T11:04:00.391Z,46.97
2019-03-23T11:06:29.045Z,51.00
2019-03-23T11:08:56.934Z,54.70
2019-03-23T11:11:25.701Z,50.80
2019-03-23T11:13:55.002Z,50.97
2019-03-23T11:16:23.842Z,49.30
2019-03-23T11:18:52.826Z,48.33
2019-03-23T11:21:21.881Z,45.23
2019-03-23T11:23:50.841Z,45.90
2019-03-23T11:26:20.042Z,42.63
2019-03-23T11:28:49.182Z,41.20
2019-03-23T11:31:36.132Z,41.60
2019-03-23T11:34:04.101Z,44.53
2019-03-23T11:36:32.370Z,45.00
2019-03-23T11:39:00.354Z,47.30
2019-03-23T11:41:28.537Z,42.27
2019-03-23T11:43:56.502Z,44.40
2019-03-23T11:46:24.220Z,41.40
2019-03-23T11:48:52.261Z,39.23
2019-03-23T11:51:20.219Z,41.77
2019-03-23T11:53:48.113Z,38.77
2019-03-23T11:56:15.830Z,41.20
2019-03-23T11:58:44.358Z,41.00
2019-03-23T12:01:16.333Z,40.00
2019-03-23T12:03:54.247Z,39.33
2019-03-23T12:06:22.318Z,39.27
2019-03-23T12:08:51.534Z,41.33
2019-03-23T12:11:20.215Z,41.87
2019-03-23T12:13:47.923Z,39.13
2019-03-23T12:16:15.968Z,43.27
2019-03-23T12:18:44.049Z,40.47
2019-03-23T12:21:12.227Z,41.83
2019-03-23T12:23:40.642Z,38.70
2019-03-23T12:26:08.627Z,39.30
2019-03-23T12:28:36.880Z,38.77
2019-03-23T12:31:04.866Z,38.90
2019-03-23T12:33:32.909Z,39.43
2019-03-23T12:36:01.295Z,36.20
2019-03-23T12:38:29.193Z,36.50
2019-03-23T12:40:57.272Z,35.00
2019-03-23T12:43:26.170Z,37.57
2019-03-23T12:45:55.477Z,37.50
2019-03-23T12:48:24.538Z,33.87
2019-03-23T12:50:54.082Z,35.10
2019-03-23T12:53:21.784Z,36.00
2019-03-23T12:55:52.542Z,33.97
2019-03-23T12:58:22.846Z,36.03
2019-03-23T13:00:52.159Z,32.90
2019-03-23T13:03:21.586Z,33.90
2019-03-23T13:05:50.469Z,34.63
2019-03-23T13:08:19.924Z,34.50
2019-03-23T13:10:48.949Z,34.83
2019-03-23T13:13:18.264Z,33.10
2019-03-23T13:15:48.274Z,34.80
2019-03-23T13:18:26.909Z,33.53
2019-03-23T13:20:53.210Z,34.30
2019-03-23T13:23:21.254Z,35.50
2019-03-23T13:25:49.478Z,33.87
2019-03-23T13:28:17.209Z,33.27
2019-03-23T13:30:45.182Z,31.30
2019-03-23T13:33:13.091Z,32.27
2019-03-23T13:35:41.046Z,30.37
2019-03-23T13:38:09.898Z,32.90
2019-03-23T13:40:38.861Z,30.77
2019-03-23T13:43:08.178Z,31.30
2019-03-23T13:45:42.600Z,29.17
2019-03-23T13:48:09.233Z,30.83
2019-03-23T13:50:38.221Z,32.87
2019-03-23T13:53:07.169Z,33.53
2019-03-23T13:55:35.928Z,31.80
2019-03-23T13:58:11.734Z,32.63
2019-03-23T14:00:40.801Z,31.30
2019-03-23T14:03:10.184Z,29.70
2019-03-23T14:05:39.090Z,31.20
2019-03-23T14:08:08.275Z,31.37
2019-03-23T14:10:37.210Z,31.80
2019-03-23T14:13:06.607Z,32.90
2019-03-23T14:15:35.777Z,31.40
2019-03-23T14:18:04.077Z,30.97
2019-03-23T14:20:33.227Z,32.77
2019-03-23T14:23:13.631Z,30.50
2019-03-23T14:25:42.628Z,32.23
2019-03-23T14:28:10.341Z,28.37
2019-03-23T14:30:38.254Z,30.07
2019-03-23T14:33:08.905Z,31.20
2019-03-23T14:35:38.412Z,32.50
2019-03-23T14:38:06.679Z,32.33
2019-03-23T14:40:50.345Z,33.87
2019-03-23T14:43:27.089Z,34.40
2019-03-23T14:45:56.271Z,35.73
2019-03-23T14:48:24.974Z,35.60
2019-03-23T14:50:52.942Z,36.00
2019-03-23T14:53:20.733Z,36.20
2019-03-23T14:55:48.587Z,35.83
2019-03-23T14:58:16.338Z,34.23
2019-03-23T15:00:44.596Z,36.53
2019-03-23T15:03:12.396Z,36.93
2019-03-23T15:05:40.186Z,37.27
2019-03-23T15:08:08.324Z,35.63
2019-03-23T15:10:36.554Z,39.17
2019-03-23T15:13:04.341Z,36.80
2019-03-23T15:15:32.853Z,38.53
2019-03-23T15:18:00.754Z,38.67
2019-03-23T15:20:29.608Z,36.90
2019-03-23T15:22:57.881Z,37.80
2019-03-23T15:25:25.802Z,37.50
2019-03-23T15:27:54.136Z,38.20
2019-03-23T15:30:22.147Z,39.10
2019-03-23T15:32:50.554Z,38.73
2019-03-23T15:35:18.509Z,36.90
2019-03-23T15:37:46.809Z,37.60
2019-03-23T15:40:16.250Z,39.33
2019-03-23T15:42:45.101Z,36.70
2019-03-23T15:45:13.697Z,35.17
2019-03-23T15:47:41.801Z,37.10
2019-03-23T15:50:10.086Z,38.37
2019-03-23T15:52:37.827Z,36.43
2019-03-23T15:55:06.177Z,36.10
2019-03-23T15:57:35.077Z,38.23
2019-03-23T16:00:05.592Z,38.97
2019-03-23T16:02:34.605Z,37.40
2019-03-23T16:05:04.174Z,37.70
2019-03-23T16:07:34.041Z,37.80
2019-03-23T16:10:03.970Z,38.97
2019-03-23T16:12:35.326Z,39.67
2019-03-23T16:15:06.313Z,37.10
2019-03-23T16:17:34.030Z,38.37
2019-03-23T16:20:03.231Z,40.90
2019-03-23T16:22:32.011Z,39.40
2019-03-23T16:25:00.861Z,39.70
2019-03-23T16:27:29.586Z,39.97
2019-03-23T16:29:58.382Z,39.13
2019-03-23T16:32:27.261Z,37.23
2019-03-23T16:34:56.325Z,39.57
2019-03-23T16:37:25.046Z,41.00
2019-03-23T16:39:55.178Z,38.97
2019-03-23T16:42:24.226Z,40.47
2019-03-23T16:44:53.101Z,39.37
2019-03-23T16:47:22.074Z,39.90
2019-03-23T16:49:50.894Z,39.10
2019-03-23T16:52:19.689Z,38.93
2019-03-23T16:54:48.951Z,39.50
2019-03-23T16:57:18.146Z,38.20
2019-03-23T16:59:45.865Z,38.53
2019-03-23T17:02:14.475Z,36.87
2019-03-23T17:04:43.210Z,35.90
2019-03-23T17:07:11.929Z,37.10
2019-03-23T17:09:40.562Z,40.70
2019-03-23T17:12:09.565Z,39.07
2019-03-23T17:14:38.810Z,36.80
2019-03-23T17:17:08.010Z,37.27
2019-03-23T17:19:37.584Z,38.23
2019-03-23T17:22:07.039Z,38.57
2019-03-23T17:24:35.967Z,40.77
2019-03-23T17:27:05.083Z,38.30
2019-03-23T17:29:33.826Z,37.20
2019-03-23T17:32:02.578Z,36.30
2019-03-23T17:34:31.723Z,40.00
2019-03-23T17:37:00.678Z,38.37
2019-03-23T17:39:29.588Z,39.77
2019-03-23T17:41:59.103Z,38.77
2019-03-23T17:44:28.361Z,38.93
2019-03-23T17:46:57.410Z,38.20
2019-03-23T17:49:26.386Z,37.60
2019-03-23T17:51:55.887Z,39.60
2019-03-23T17:54:24.637Z,37.50
2019-03-23T17:56:54.177Z,38.90
2019-03-23T17:59:23.309Z,40.83
2019-03-23T18:01:52.702Z,39.00
2019-03-23T18:04:21.677Z,39.83
2019-03-23T18:06:50.593Z,40.73
2019-03-23T18:09:19.701Z,39.67
2019-03-23T18:11:48.485Z,38.10
2019-03-23T18:14:17.667Z,40.13
2019-03-23T18:16:46.310Z,40.90
2019-03-23T18:19:15.030Z,42.77
2019-03-23T18:21:43.840Z,37.93
2019-03-23T18:24:12.604Z,42.43
2019-03-23T18:26:41.234Z,40.20
2019-03-23T18:29:10.092Z,38.70
2019-03-23T18:31:38.720Z,38.27
2019-03-23T18:34:07.453Z,36.57
2019-03-23T18:36:36.325Z,34.87
2019-03-23T18:39:05.478Z,36.10
2019-03-23T18:41:34.289Z,35.17
2019-03-23T18:44:03.099Z,32.63
2019-03-23T18:46:31.820Z,30.70
2019-03-23T18:49:00.840Z,29.33
2019-03-23T18:51:29.573Z,30.97
2019-03-23T18:53:58.622Z,24.70
2019-03-23T18:56:27.357Z,24.27
2019-03-23T18:58:55.958Z,25.67
2019-03-23T19:01:24.706Z,23.77
2019-03-23T19:03:53.322Z,20.43
2019-03-23T19:06:22.054Z,19.57
2019-03-23T19:08:50.940Z,18.50
2019-03-23T19:11:19.869Z,18.27
2019-03-23T19:13:48.574Z,18.27
2019-03-23T19:16:17.297Z,17.87
2019-03-23T19:18:45.916Z,16.53
2019-03-23T19:21:14.630Z,16.07
2019-03-23T19:23:43.630Z,16.57
2019-03-23T19:26:12.606Z,17.83
2019-03-23T19:28:42.194Z,18.90
2019-03-23T19:31:10.253Z,16.70
2019-03-23T19:33:39.289Z,19.37
2019-03-23T19:39:43.156Z,18.60
2019-03-23T19:42:11.630Z,19.70
2019-03-23T19:44:40.196Z,19.90
2019-03-23T19:47:09.200Z,19.23
2019-03-23T19:49:37.898Z,20.27
2019-03-23T19:52:06.760Z,20.40
2019-03-23T19:54:35.270Z,21.20
2019-03-23T19:57:03.903Z,20.43
2019-03-23T19:59:32.323Z,21.80
2019-03-23T20:02:00.856Z,22.60
2019-03-23T20:04:29.540Z,24.37
2019-03-23T20:06:58.715Z,22.27
2019-03-23T20:09:27.311Z,23.07
2019-03-23T20:11:55.955Z,23.53
2019-03-23T20:14:24.578Z,23.00
2019-03-23T20:16:53.225Z,23.17
2019-03-23T20:19:21.958Z,23.67
2019-03-23T20:21:50.657Z,25.20
2019-03-23T20:24:19.295Z,24.33
2019-03-23T20:26:47.879Z,23.87
2019-03-23T20:29:16.496Z,22.97
2019-03-23T20:31:45.609Z,24.93
2019-03-23T20:34:14.181Z,24.20
2019-03-23T20:36:42.774Z,23.80
2019-03-23T20:39:11.658Z,23.17
2019-03-23T20:41:40.325Z,22.77
2019-03-23T20:44:09.941Z,24.47
2019-03-23T20:46:38.747Z,22.77
2019-03-23T20:49:08.890Z,22.60
2019-03-23T20:51:37.672Z,24.27
2019-03-23T20:54:06.407Z,22.10
2019-03-23T20:56:35.202Z,23.30
2019-03-23T20:59:03.815Z,22.20
2019-03-23T21:01:33.525Z,22.77
2019-03-23T21:04:02.033Z,20.60
2019-03-23T21:06:30.709Z,19.50
2019-03-23T21:08:59.428Z,16.73
2019-03-23T21:11:28.102Z,15.13
2019-03-23T21:13:56.703Z,12.40
2019-03-23T21:16:25.289Z,13.77
2019-03-23T21:18:53.787Z,13.60
2019-03-23T21:21:22.430Z,12.13
2019-03-23T21:23:52.216Z,12.10
2019-03-23T21:26:21.170Z,10.93
2019-03-23T21:28:50.107Z,10.17
2019-03-23T21:31:19.046Z,10.27
2019-03-23T21:33:48.057Z,9.90
2019-03-23T21:36:16.809Z,10.03
2019-03-23T21:38:46.074Z,9.00
2019-03-23T21:41:15.025Z,9.80
2019-03-23T21:43:44.045Z,9.17
2019-03-23T21:46:13.333Z,9.33
2019-03-23T21:48:42.625Z,7.43
2019-03-23T21:51:11.373Z,7.40
2019-03-23T21:53:41.132Z,7.40
2019-03-23T21:56:09.970Z,7.20
2019-03-23T21:58:40.266Z,7.00
2019-03-23T22:01:09.973Z,6.77
2019-03-23T22:03:39.098Z,7.03
2019-03-23T22:06:07.956Z,6.63
2019-03-23T22:08:37.001Z,7.70
2019-03-23T22:11:05.663Z,7.10
2019-03-23T22:13:34.576Z,6.87
2019-03-23T22:16:05.116Z,6.60
2019-03-23T22:18:33.920Z,7.40
2019-03-23T22:21:02.649Z,6.00
2019-03-23T22:23:31.362Z,6.27
2019-03-23T22:26:00.472Z,5.60
2019-03-23T22:28:29.745Z,6.60
2019-03-23T22:30:59.008Z,7.70
2019-03-23T22:33:28.582Z,6.37
2019-03-23T22:35:57.677Z,6.90
2019-03-23T22:38:26.862Z,6.27
2019-03-23T22:40:55.461Z,6.33
2019-03-23T22:43:24.258Z,6.30
2019-03-23T22:45:53.274Z,6.00
2019-03-23T22:48:22.279Z,6.00
2019-03-23T22:50:51.834Z,6.10
2019-03-23T22:53:21.078Z,6.00
2019-03-23T22:55:50.027Z,5.93
2019-03-23T22:58:18.625Z,6.07
2019-03-23T23:00:48.380Z,6.47
2019-03-23T23:03:17.341Z,6.77
2019-03-23T23:05:46.330Z,6.60
2019-03-23T23:08:15.078Z,5.57
2019-03-23T23:10:44.052Z,6.87
2019-03-23T23:13:13.208Z,6.40
2019-03-23T23:15:42.908Z,6.60
2019-03-23T23:18:11.846Z,7.23
2019-03-23T23:20:40.830Z,8.37
2019-03-23T23:23:09.678Z,7.57
2019-03-23T23:25:38.288Z,7.80
2019-03-23T23:28:07.318Z,7.90
2019-03-23T23:30:36.198Z,7.00
2019-03-23T23:33:05.410Z,8.10
2019-03-23T23:35:34.461Z,8.10
2019-03-23T23:38:03.584Z,8.73
2019-03-23T23:40:32.471Z,8.10
2019-03-23T23:43:01.490Z,9.53
2019-03-23T23:45:30.750Z,9.30
2019-03-23T23:47:59.589Z,10.50
2019-03-23T23:50:28.654Z,9.30
2019-03-23T23:52:57.546Z,9.10
2019-03-23T23:55:26.408Z,9.67
2019-03-23T23:57:55.896Z,9.87
